sensor_id;sensor_type;location;lat;lon;timestamp;P1;durP1;ratioP1;P2;durP2;ratioP2
74523;SDS011;63074;44.696;10.358;2023-04-06T04:56:50;1.52;;;0.82;;
74523;SDS011;63074;44.696;10.358;2023-04-06T20:21:08;13.55;;;7.75;;
74523;SDS011;63074;44.696;10.358;2023-04-06T20:23:35;12.27;;;7.18;;
74523;SDS011;63074;44.696;10.358;2023-04-06T20:26:09;9.30;;;6.47;;
74523;SDS011;63074;44.696;10.358;2023-04-06T20:28:35;12.48;;;7.15;;
74523;SDS011;63074;44.696;10.358;2023-04-06T20:31:06;11.43;;;6.28;;
74523;SDS011;63074;44.696;10.358;2023-04-06T20:33:33;10.88;;;6.85;;
74523;SDS011;63074;44.696;10.358;2023-04-06T20:35:59;12.07;;;7.32;;
74523;SDS011;63074;44.696;10.358;2023-04-06T20:38:28;10.93;;;6.55;;
74523;SDS011;63074;44.696;10.358;2023-04-06T20:40:55;10.90;;;6.53;;
74523;SDS011;63074;44.696;10.358;2023-04-06T20:43:22;10.00;;;6.10;;
74523;SDS011;63074;44.696;10.358;2023-04-06T20:45:51;11.88;;;6.10;;
74523;SDS011;63074;44.696;10.358;2023-04-06T20:48:17;9.55;;;5.78;;
74523;SDS011;63074;44.696;10.358;2023-04-06T20:50:43;9.85;;;5.68;;
74523;SDS011;63074;44.696;10.358;2023-04-06T20:53:09;10.55;;;6.60;;
74523;SDS011;63074;44.696;10.358;2023-04-06T20:55:39;13.65;;;7.15;;
74523;SDS011;63074;44.696;10.358;2023-04-06T20:58:05;9.70;;;6.53;;
74523;SDS011;63074;44.696;10.358;2023-04-06T21:00:32;10.55;;;6.07;;
74523;SDS011;63074;44.696;10.358;2023-04-06T21:02:58;11.52;;;6.25;;
74523;SDS011;63074;44.696;10.358;2023-04-06T21:05:24;10.20;;;5.72;;
74523;SDS011;63074;44.696;10.358;2023-04-06T21:07:51;11.82;;;5.47;;
74523;SDS011;63074;44.696;10.358;2023-04-06T21:10:17;12.88;;;6.22;;
74523;SDS011;63074;44.696;10.358;2023-04-06T21:12:43;10.32;;;5.93;;
74523;SDS011;63074;44.696;10.358;2023-04-06T21:15:09;11.82;;;6.30;;
74523;SDS011;63074;44.696;10.358;2023-04-06T21:17:35;12.02;;;6.90;;
74523;SDS011;63074;44.696;10.358;2023-04-06T21:20:02;11.38;;;6.57;;
74523;SDS011;63074;44.696;10.358;2023-04-06T21:22:28;14.25;;;7.75;;
74523;SDS011;63074;44.696;10.358;2023-04-06T21:24:54;12.15;;;7.40;;
74523;SDS011;63074;44.696;10.358;2023-04-06T21:27:21;12.98;;;6.88;;
74523;SDS011;63074;44.696;10.358;2023-04-06T21:29:47;16.23;;;6.90;;
74523;SDS011;63074;44.696;10.358;2023-04-06T21:32:13;11.95;;;6.53;;
74523;SDS011;63074;44.696;10.358;2023-04-06T21:34:42;12.40;;;7.03;;
74523;SDS011;63074;44.696;10.358;2023-04-06T21:37:12;11.98;;;6.65;;
74523;SDS011;63074;44.696;10.358;2023-04-06T21:39:39;15.30;;;7.55;;
74523;SDS011;63074;44.696;10.358;2023-04-06T21:42:05;13.50;;;7.32;;
74523;SDS011;63074;44.696;10.358;2023-04-06T21:44:34;12.18;;;6.57;;
74523;SDS011;63074;44.696;10.358;2023-04-06T21:47:00;10.13;;;6.45;;
74523;SDS011;63074;44.696;10.358;2023-04-06T21:49:27;12.38;;;6.22;;
74523;SDS011;63074;44.696;10.358;2023-04-06T21:51:54;10.38;;;6.75;;
74523;SDS011;63074;44.696;10.358;2023-04-06T21:54:20;12.00;;;6.75;;
74523;SDS011;63074;44.696;10.358;2023-04-06T21:56:46;12.13;;;6.13;;
74523;SDS011;63074;44.696;10.358;2023-04-06T21:59:12;11.93;;;6.65;;
74523;SDS011;63074;44.696;10.358;2023-04-06T22:01:39;9.38;;;5.25;;
74523;SDS011;63074;44.696;10.358;2023-04-06T22:04:05;9.45;;;5.90;;
74523;SDS011;63074;44.696;10.358;2023-04-06T22:06:32;11.13;;;5.90;;
74523;SDS011;63074;44.696;10.358;2023-04-06T22:08:58;11.00;;;5.65;;
74523;SDS011;63074;44.696;10.358;2023-04-06T22:11:25;11.25;;;7.03;;
74523;SDS011;63074;44.696;10.358;2023-04-06T22:13:52;15.23;;;6.00;;
74523;SDS011;63074;44.696;10.358;2023-04-06T22:16:18;7.97;;;5.50;;
74523;SDS011;63074;44.696;10.358;2023-04-06T22:18:44;10.07;;;5.32;;
74523;SDS011;63074;44.696;10.358;2023-04-06T22:21:10;10.73;;;6.32;;
74523;SDS011;63074;44.696;10.358;2023-04-06T22:23:36;11.45;;;5.50;;
74523;SDS011;63074;44.696;10.358;2023-04-06T22:26:07;10.90;;;4.90;;
74523;SDS011;63074;44.696;10.358;2023-04-06T22:28:34;11.07;;;6.25;;
74523;SDS011;63074;44.696;10.358;2023-04-06T22:31:00;9.40;;;5.22;;
74523;SDS011;63074;44.696;10.358;2023-04-06T22:33:26;8.75;;;5.05;;
74523;SDS011;63074;44.696;10.358;2023-04-06T22:35:52;7.88;;;4.72;;
74523;SDS011;63074;44.696;10.358;2023-04-06T22:38:19;9.90;;;4.95;;
74523;SDS011;63074;44.696;10.358;2023-04-06T22:40:45;8.05;;;4.95;;
74523;SDS011;63074;44.696;10.358;2023-04-06T22:43:11;12.20;;;5.18;;
74523;SDS011;63074;44.696;10.358;2023-04-06T22:45:37;7.72;;;5.22;;
74523;SDS011;63074;44.696;10.358;2023-04-06T22:48:03;8.05;;;4.03;;
74523;SDS011;63074;44.696;10.358;2023-04-06T22:50:30;9.23;;;5.15;;
74523;SDS011;63074;44.696;10.358;2023-04-06T22:52:56;7.15;;;4.50;;
74523;SDS011;63074;44.696;10.358;2023-04-06T22:55:22;9.13;;;4.88;;
74523;SDS011;63074;44.696;10.358;2023-04-06T22:57:49;7.03;;;4.97;;
74523;SDS011;63074;44.696;10.358;2023-04-06T23:00:15;7.75;;;4.63;;
74523;SDS011;63074;44.696;10.358;2023-04-06T23:02:42;7.22;;;4.45;;
74523;SDS011;63074;44.696;10.358;2023-04-06T23:05:08;7.10;;;3.85;;
74523;SDS011;63074;44.696;10.358;2023-04-06T23:07:35;8.35;;;4.60;;
74523;SDS011;63074;44.696;10.358;2023-04-06T23:10:01;10.88;;;4.72;;
74523;SDS011;63074;44.696;10.358;2023-04-06T23:12:28;7.53;;;4.80;;
74523;SDS011;63074;44.696;10.358;2023-04-06T23:14:54;8.82;;;4.78;;
74523;SDS011;63074;44.696;10.358;2023-04-06T23:17:20;8.63;;;4.55;;
74523;SDS011;63074;44.696;10.358;2023-04-06T23:19:46;7.32;;;4.60;;
74523;SDS011;63074;44.696;10.358;2023-04-06T23:22:12;7.72;;;4.53;;
74523;SDS011;63074;44.696;10.358;2023-04-06T23:24:38;7.43;;;4.63;;
74523;SDS011;63074;44.696;10.358;2023-04-06T23:27:05;8.20;;;3.92;;
74523;SDS011;63074;44.696;10.358;2023-04-06T23:29:31;8.40;;;5.18;;
74523;SDS011;63074;44.696;10.358;2023-04-06T23:31:58;7.05;;;4.53;;
74523;SDS011;63074;44.696;10.358;2023-04-06T23:34:24;9.00;;;4.38;;
74523;SDS011;63074;44.696;10.358;2023-04-06T23:36:51;7.65;;;4.40;;
74523;SDS011;63074;44.696;10.358;2023-04-06T23:39:18;7.15;;;4.28;;
74523;SDS011;63074;44.696;10.358;2023-04-06T23:41:45;6.95;;;4.45;;
74523;SDS011;63074;44.696;10.358;2023-04-06T23:44:11;8.55;;;4.50;;
74523;SDS011;63074;44.696;10.358;2023-04-06T23:46:37;7.32;;;4.03;;
74523;SDS011;63074;44.696;10.358;2023-04-06T23:49:03;6.95;;;4.38;;
74523;SDS011;63074;44.696;10.358;2023-04-06T23:51:29;6.13;;;3.80;;
74523;SDS011;63074;44.696;10.358;2023-04-06T23:53:55;7.30;;;4.00;;
74523;SDS011;63074;44.696;10.358;2023-04-06T23:56:22;8.80;;;3.55;;
74523;SDS011;63074;44.696;10.358;2023-04-06T23:58:48;7.55;;;4.25;;
